Time;durP1;ratioP1;P1;durP2;ratioP2;P2;SDS_P1;SDS_P2;PMS_P1;PMS_P2;Temp;Humidity;BMP_temperature;BMP_pressure;BME280_temperature;BME280_humidity;BME280_pressure;Samples;Min_cycle;Max_cycle;Signal;HPM_P1;HPM_P2
2022/12/21 00:00:28;;;;;;;5.90;5.07;;;18.00;61.40;;;;;;5052612;28;20457;-76
2022/12/21 00:02:57;;;;;;;5.10;4.60;;;18.00;61.40;;;;;;5053006;28;20997;-76
2022/12/21 00:05:25;;;;;;;5.13;4.63;;;18.10;61.50;;;;;;5045590;28;20455;-77
2022/12/21 00:07:54;;;;;;;4.60;4.20;;;18.10;61.40;;;;;;5034105;28;20448;-76
2022/12/21 00:10:22;;;;;;;4.53;4.10;;;18.10;61.40;;;;;;5050494;28;20456;-76
2022/12/21 00:12:50;;;;;;;5.00;4.50;;;18.10;61.40;;;;;;5051105;28;20477;-76
2022/12/21 00:15:18;;;;;;;5.23;4.60;;;18.10;61.40;;;;;;5054355;28;20435;-76
2022/12/21 00:17:46;;;;;;;4.83;4.40;;;18.00;61.40;;;;;;5053879;28;20450;-76
2022/12/21 00:20:14;;;;;;;6.60;5.17;;;18.10;61.40;;;;;;5049952;28;20474;-75
2022/12/21 00:22:43;;;;;;;4.57;4.07;;;18.10;61.30;;;;;;5053579;28;20466;-76
2022/12/21 00:25:12;;;;;;;4.67;4.20;;;18.10;61.30;;;;;;5052642;28;20454;-75
2022/12/21 00:27:43;;;;;;;5.33;4.83;;;18.10;61.30;;;;;;5041707;28;20523;-76
2022/12/21 00:30:12;;;;;;;6.00;4.77;;;18.10;61.30;;;;;;5053804;28;20500;-77
2022/12/21 00:32:40;;;;;;;5.40;4.40;;;18.10;61.20;;;;;;5053422;28;20493;-76
2022/12/21 00:35:08;;;;;;;5.00;4.10;;;18.10;61.30;;;;;;5049005;28;20493;-76
2022/12/21 00:37:36;;;;;;;8.00;4.00;;;18.10;61.30;;;;;;5034136;28;20435;-75
2022/12/21 00:40:05;;;;;;;4.10;3.80;;;18.10;61.30;;;;;;5051732;28;20528;-75
2022/12/21 00:42:35;;;;;;;4.57;3.97;;;18.10;61.30;;;;;;5052841;28;20466;-76
2022/12/21 00:45:03;;;;;;;4.40;4.00;;;18.10;61.30;;;;;;5045302;28;20454;-76
2022/12/21 00:47:32;;;;;;;4.47;4.07;;;18.10;61.30;;;;;;5046900;28;20926;-75
2022/12/21 00:50:00;;;;;;;4.33;3.93;;;18.10;61.30;;;;;;5052209;28;20485;-77
2022/12/21 00:52:38;;;;;;;4.40;3.90;;;18.10;61.30;;;;;;5053834;28;20441;-76
2022/12/21 00:55:07;;;;;;;4.97;4.27;;;18.10;61.90;;;;;;5051871;28;20447;-76
2022/12/21 00:57:36;;;;;;;4.23;3.93;;;18.10;61.30;;;;;;5043563;28;20443;-77
2022/12/21 01:00:05;;;;;;;4.50;4.17;;;18.10;61.20;;;;;;5044965;28;20479;-76
2022/12/21 01:02:33;;;;;;;5.97;4.40;;;18.00;61.10;;;;;;5047700;28;20473;-76
2022/12/21 01:05:01;;;;;;;5.10;4.53;;;18.00;61.20;;;;;;5033220;28;20451;-76
2022/12/21 01:07:29;;;;;;;4.80;4.40;;;18.10;61.30;;;;;;5045252;28;20456;-76
2022/12/21 01:09:57;;;;;;;5.03;4.53;;;18.10;61.20;;;;;;5051634;28;20462;-76
2022/12/21 01:12:25;;;;;;;4.77;4.27;;;18.00;61.20;;;;;;5053196;28;20431;-76
2022/12/21 01:14:54;;;;;;;4.70;4.30;;;18.10;61.20;;;;;;5053999;28;20430;-75
2022/12/21 01:17:22;;;;;;;4.40;3.97;;;18.10;61.20;;;;;;5043870;28;20451;-75
2022/12/21 01:19:50;;;;;;;4.07;3.77;;;18.10;61.20;;;;;;5051238;28;20447;-76
2022/12/21 01:22:18;;;;;;;4.63;4.23;;;18.10;61.20;;;;;;5053596;28;20792;-76
2022/12/21 01:24:47;;;;;;;5.20;4.50;;;18.00;61.10;;;;;;5048230;28;20462;-76
2022/12/21 01:27:15;;;;;;;4.03;3.67;;;18.10;61.10;;;;;;5038801;28;20996;-76
2022/12/21 01:29:43;;;;;;;4.40;4.00;;;18.10;61.00;;;;;;5051969;28;20473;-76
2022/12/21 01:32:12;;;;;;;4.37;3.97;;;18.10;61.10;;;;;;5041011;28;20461;-76
2022/12/21 01:34:41;;;;;;;4.03;3.63;;;18.10;61.00;;;;;;5048408;28;20454;-76
2022/12/21 01:37:09;;;;;;;4.40;4.00;;;18.10;61.00;;;;;;5037507;28;20818;-76
2022/12/21 01:39:37;;;;;;;4.40;4.00;;;18.10;61.00;;;;;;5052243;28;20454;-76
2022/12/21 01:42:05;;;;;;;4.70;4.30;;;18.10;61.00;;;;;;5051709;28;20442;-76
2022/12/21 01:44:55;;;;;;;3.77;3.47;;;18.10;61.00;;;;;;5051757;28;20549;-76
2022/12/21 01:47:26;;;;;;;4.20;3.83;;;18.10;60.90;;;;;;5048140;28;20439;-77
2022/12/21 01:49:56;;;;;;;3.83;3.63;;;18.10;61.00;;;;;;5051279;28;20461;-77
2022/12/21 01:52:24;;;;;;;4.27;3.87;;;18.10;61.00;;;;;;5051506;28;20442;-77
2022/12/21 01:54:53;;;;;;;4.20;3.80;;;18.00;60.90;;;;;;5049698;28;20960;-76
2022/12/21 01:57:25;;;;;;;8.10;4.10;;;18.00;60.90;;;;;;5037421;28;20451;-76
2022/12/21 01:59:55;;;;;;;4.80;3.70;;;18.00;60.90;;;;;;5047595;28;20474;-76
2022/12/21 02:02:26;;;;;;;4.53;3.93;;;18.10;61.00;;;;;;5038007;28;20462;-76
2022/12/21 02:04:54;;;;;;;4.80;4.33;;;18.10;61.00;;;;;;5035812;28;20508;-76
2022/12/21 02:07:22;;;;;;;4.73;4.33;;;18.10;61.00;;;;;;5039475;28;20456;-76
2022/12/21 02:09:50;;;;;;;4.47;4.03;;;18.10;60.90;;;;;;5038679;28;20478;-76
2022/12/21 02:12:18;;;;;;;3.83;3.53;;;18.10;60.90;;;;;;5044526;28;20541;-76
2022/12/21 02:14:47;;;;;;;4.70;4.30;;;18.00;60.80;;;;;;5039203;28;20541;-76
2022/12/21 02:17:18;;;;;;;4.00;3.70;;;18.00;60.80;;;;;;5044773;28;20451;-76
2022/12/21 02:20:06;;;;;;;4.00;3.60;;;18.00;60.80;;;;;;5042261;28;20474;-76
2022/12/21 02:22:43;;;;;;;4.07;3.70;;;18.00;60.80;;;;;;5040058;28;20451;-77
2022/12/21 02:25:22;;;;;;;4.33;3.80;;;18.00;61.00;;;;;;5042583;28;20454;-76
2022/12/21 02:28:23;;;;;;;3.80;3.50;;;18.00;60.90;;;;;;5044252;28;20454;-76
2022/12/21 02:31:06;;;;;;;5.60;3.83;;;18.10;60.90;;;;;;5025588;28;20459;-76
2022/12/21 02:37:24;;;;;;;4.37;3.90;;;18.00;60.70;;;;;;5046475;28;20414;-77
2022/12/21 02:39:56;;;;;;;5.50;4.30;;;18.00;61.20;;;;;;5054835;28;20461;-77
2022/12/21 02:45:14;;;;;;;7.70;5.93;;;18.00;61.10;;;;;;5048997;28;20430;-77
2022/12/21 02:47:46;;;;;;;10.00;7.00;;;18.00;61.00;;;;;;5062851;28;20438;-77
2022/12/21 02:50:15;;;;;;;12.10;7.93;;;18.00;61.70;;;;;;5060804;28;20455;-77
2022/12/21 02:52:47;;;;;;;11.00;8.03;;;17.90;60.90;;;;;;5054824;28;20535;-77
2022/12/21 02:55:15;;;;;;;8.40;7.00;;;18.00;60.90;;;;;;5053911;28;20462;-77
2022/12/21 02:57:44;;;;;;;10.70;8.10;;;18.00;60.90;;;;;;5056555;28;20430;-81
2022/12/21 03:00:13;;;;;;;10.67;8.03;;;18.00;60.90;;;;;;5050512;28;20460;-81
2022/12/21 03:03:47;;;;;;;14.30;10.03;;;18.00;60.90;;;;;;5035149;28;20942;-81
2022/12/21 03:05:50;;;;;;;12.20;8.87;;;17.90;60.80;;;;;;5043655;28;20441;-77
2022/12/21 03:08:21;;;;;;;11.00;8.70;;;18.00;60.90;;;;;;5055166;28;20477;-77
2022/12/21 03:10:56;;;;;;;14.00;9.77;;;18.00;60.80;;;;;;5065814;28;20437;-77
2022/12/21 03:13:28;;;;;;;15.33;10.10;;;18.00;60.90;;;;;;5055304;28;20474;-77
2022/12/21 03:15:59;;;;;;;13.97;9.40;;;17.90;60.80;;;;;;5055073;28;20496;-79
2022/12/21 03:18:32;;;;;;;10.93;8.43;;;18.00;60.90;;;;;;5051153;28;20494;-80
2022/12/21 03:21:01;;;;;;;11.13;8.57;;;18.00;60.90;;;;;;5048007;28;20450;-77
2022/12/21 03:23:33;;;;;;;14.13;9.73;;;17.90;60.70;;;;;;5050022;28;20474;-77
2022/12/21 03:26:03;;;;;;;13.43;9.73;;;17.90;60.70;;;;;;5048867;28;20423;-76
2022/12/21 03:28:32;;;;;;;12.30;9.70;;;17.90;60.70;;;;;;5056545;28;20477;-76
2022/12/21 03:31:03;;;;;;;14.10;9.50;;;17.90;60.70;;;;;;5039118;28;20609;-76
2022/12/21 03:33:33;;;;;;;19.43;9.57;;;17.90;60.80;;;;;;5038081;28;20455;-76
2022/12/21 03:36:03;;;;;;;13.53;9.60;;;17.90;60.80;;;;;;5046460;28;20447;-76
2022/12/21 03:38:32;;;;;;;15.90;10.90;;;17.90;60.80;;;;;;5041914;28;20467;-76
2022/12/21 03:41:04;;;;;;;14.13;9.93;;;17.90;60.70;;;;;;5041399;28;20455;-76
2022/12/21 03:43:33;;;;;;;16.63;10.77;;;17.90;60.70;;;;;;5043806;28;20443;-77
2022/12/21 03:46:03;;;;;;;13.87;9.87;;;17.90;60.70;;;;;;5039995;28;20461;-76
2022/12/21 03:48:38;;;;;;;15.13;10.50;;;17.90;60.60;;;;;;5040079;28;20490;-77
2022/12/21 03:51:09;;;;;;;13.30;9.20;;;17.90;60.50;;;;;;5046794;28;20458;-76
2022/12/21 03:53:40;;;;;;;16.30;10.57;;;17.90;60.80;;;;;;5047341;28;20456;-77
2022/12/21 03:56:08;;;;;;;16.23;10.50;;;17.90;60.70;;;;;;5042538;28;20461;-77
2022/12/21 03:58:36;;;;;;;14.93;9.70;;;17.90;60.70;;;;;;5042415;28;20458;-77
2022/12/21 04:01:07;;;;;;;16.30;10.23;;;17.90;60.80;;;;;;5046580;28;20446;-77
2022/12/21 04:03:38;;;;;;;16.00;10.80;;;17.90;60.70;;;;;;5043660;28;20530;-77
2022/12/21 04:06:08;;;;;;;13.93;10.00;;;17.90;60.70;;;;;;5043857;28;20528;-77
2022/12/21 04:08:36;;;;;;;14.70;10.50;;;17.90;60.60;;;;;;5039447;28;20467;-77
2022/12/21 04:11:05;;;;;;;17.53;10.53;;;17.90;60.50;;;;;;5043992;28;20451;-76
2022/12/21 04:13:34;;;;;;;13.27;9.10;;;17.80;60.60;;;;;;5042342;28;20448;-77
2022/12/21 04:16:05;;;;;;;13.50;9.93;;;17.90;60.70;;;;;;5041938;28;20454;-77
2022/12/21 04:21:20;;;;;;;14.10;9.90;;;17.80;60.60;;;;;;5042938;28;20445;-77
2022/12/21 04:29:18;;;;;;;12.23;8.83;;;17.80;60.60;;;;;;5051105;28;20450;-77
2022/12/21 04:31:46;;;;;;;14.07;9.83;;;17.80;60.60;;;;;;5062815;28;20449;-80
2022/12/21 04:34:14;;;;;;;12.70;9.57;;;17.80;60.60;;;;;;5054508;28;20442;-81
2022/12/21 04:39:29;;;;;;;13.60;9.47;;;17.80;60.60;;;;;;5042377;28;20470;-77
2022/12/21 04:41:57;;;;;;;12.13;8.73;;;17.80;60.50;;;;;;5043714;28;20893;-77
2022/12/21 04:44:25;;;;;;;13.80;9.83;;;17.80;60.40;;;;;;5045060;28;20473;-81
2022/12/21 04:46:54;;;;;;;13.13;9.80;;;17.80;60.40;;;;;;5046720;28;20537;-77
2022/12/21 04:49:22;;;;;;;13.60;9.87;;;17.80;60.60;;;;;;5046275;28;20478;-77
2022/12/21 04:51:52;;;;;;;12.60;9.30;;;17.80;60.40;;;;;;5051777;28;20454;-77
2022/12/21 04:57:09;;;;;;;13.13;8.90;;;17.80;60.60;;;;;;5048556;28;20455;-78
2022/12/21 04:59:38;;;;;;;11.40;8.97;;;17.80;60.60;;;;;;5051717;28;20477;-77
2022/12/21 05:02:06;;;;;;;12.37;9.00;;;17.80;60.70;;;;;;5046700;28;20454;-77
2022/12/21 05:04:35;;;;;;;12.97;9.40;;;17.80;60.50;;;;;;5045259;28;20535;-81
2022/12/21 05:07:04;;;;;;;12.27;9.37;;;17.80;60.50;;;;;;5043046;28;20455;-77
2022/12/21 05:09:32;;;;;;;12.77;8.67;;;17.80;60.50;;;;;;5042518;28;20474;-77
2022/12/21 05:12:00;;;;;;;11.83;8.50;;;17.80;60.60;;;;;;5042065;28;20454;-77
2022/12/21 05:14:28;;;;;;;12.23;8.90;;;17.80;60.50;;;;;;5041696;28;20447;-77
2022/12/21 05:16:55;;;;;;;11.50;8.13;;;17.80;60.50;;;;;;5045556;28;20454;-77
2022/12/21 05:19:23;;;;;;;12.40;8.70;;;17.80;60.50;;;;;;5053344;28;20470;-76
2022/12/21 05:21:52;;;;;;;11.53;8.60;;;17.80;60.50;;;;;;5077075;28;20442;-77
2022/12/21 05:24:22;;;;;;;11.33;8.07;;;17.70;61.20;;;;;;5073093;28;20452;-83
2022/12/21 05:26:49;;;;;;;11.60;8.50;;;17.80;60.50;;;;;;5074693;28;20424;-77
2022/12/21 05:29:18;;;;;;;11.67;9.20;;;17.80;60.50;;;;;;5069212;28;20465;-77
2022/12/21 05:31:45;;;;;;;13.33;8.60;;;17.80;60.50;;;;;;5072409;28;20446;-77
2022/12/21 05:34:14;;;;;;;10.20;7.87;;;17.80;60.60;;;;;;5070843;28;20438;-77
2022/12/21 05:36:41;;;;;;;10.57;8.00;;;17.80;60.40;;;;;;5072335;28;20469;-77
2022/12/21 05:39:09;;;;;;;10.10;7.97;;;17.80;60.50;;;;;;5072285;28;20460;-77
2022/12/21 05:41:38;;;;;;;11.70;7.97;;;17.70;60.20;;;;;;5068296;28;20443;-77
2022/12/21 05:44:09;;;;;;;12.03;8.70;;;17.80;60.40;;;;;;5079927;28;20438;-77
2022/12/21 05:46:37;;;;;;;11.73;8.50;;;17.80;60.40;;;;;;5082303;28;20534;-77
2022/12/21 05:49:04;;;;;;;10.43;7.87;;;17.70;60.20;;;;;;5066285;28;20485;-77
2022/12/21 05:51:33;;;;;;;10.20;7.67;;;17.80;60.40;;;;;;5043050;28;20455;-77
2022/12/21 05:54:00;;;;;;;11.00;7.70;;;17.70;60.50;;;;;;5045691;28;20455;-77
2022/12/21 05:56:29;;;;;;;12.30;8.63;;;17.80;60.40;;;;;;5040968;28;20443;-77
2022/12/21 05:58:58;;;;;;;10.60;8.10;;;17.70;60.30;;;;;;5040206;28;20474;-77
2022/12/21 06:01:27;;;;;;;10.20;8.13;;;17.80;60.50;;;;;;5049068;28;20450;-77
2022/12/21 06:03:55;;;;;;;9.87;7.70;;;17.70;60.30;;;;;;5046200;28;20463;-78
2022/12/21 06:06:22;;;;;;;11.70;7.70;;;17.70;60.30;;;;;;5051864;28;20592;-77
2022/12/21 06:08:51;;;;;;;9.40;7.37;;;17.70;60.40;;;;;;5044910;28;20467;-78
2022/12/21 06:11:20;;;;;;;10.77;7.73;;;17.70;60.20;;;;;;5044447;28;20459;-78
2022/12/21 06:13:48;;;;;;;9.10;7.13;;;17.70;60.20;;;;;;5046146;28;20446;-78
2022/12/21 06:16:18;;;;;;;11.13;8.47;;;17.70;60.30;;;;;;5039059;28;20475;-77
2022/12/21 06:18:46;;;;;;;9.20;7.23;;;17.70;60.20;;;;;;5039424;28;20469;-77
2022/12/21 06:21:14;;;;;;;10.23;7.40;;;17.70;60.20;;;;;;5041173;28;20490;-78
2022/12/21 06:23:42;;;;;;;8.97;6.83;;;17.70;60.30;;;;;;5043493;28;20494;-78
2022/12/21 06:26:12;;;;;;;9.63;7.37;;;17.70;60.20;;;;;;5041980;28;20462;-78
2022/12/21 06:28:40;;;;;;;9.90;7.47;;;17.70;60.30;;;;;;5053322;28;20474;-77
2022/12/21 06:31:09;;;;;;;8.60;6.97;;;17.60;60.10;;;;;;5050844;28;20460;-78
2022/12/21 06:33:39;;;;;;;7.57;6.37;;;17.60;60.20;;;;;;5038751;28;20536;-77
2022/12/21 06:36:08;;;;;;;8.67;7.20;;;17.60;61.00;;;;;;5046619;28;20457;-77
2022/12/21 06:38:36;;;;;;;9.00;6.80;;;17.70;60.40;;;;;;5045368;28;20482;-77
2022/12/21 06:41:05;;;;;;;8.23;6.53;;;17.70;60.30;;;;;;5036921;28;20458;-78
2022/12/21 06:43:33;;;;;;;10.90;7.47;;;17.70;60.30;;;;;;5039985;28;20482;-78
2022/12/21 06:46:02;;;;;;;9.63;6.90;;;17.60;60.10;;;;;;5053526;28;20477;-77
2022/12/21 06:48:31;;;;;;;8.43;6.57;;;17.60;60.20;;;;;;5042966;28;20479;-77
2022/12/21 06:51:01;;;;;;;8.60;6.53;;;17.60;60.20;;;;;;5045616;28;20451;-77
2022/12/21 06:53:30;;;;;;;8.57;6.60;;;17.60;60.20;;;;;;5047224;28;20478;-77
2022/12/21 06:55:59;;;;;;;10.67;7.93;;;17.60;60.50;;;;;;5043685;28;20449;-78
2022/12/21 06:58:29;;;;;;;7.60;6.60;;;17.60;60.30;;;;;;5037161;28;20529;-77
2022/12/21 07:01:04;;;;;;;9.40;7.13;;;17.60;60.20;;;;;;5039850;28;20459;-77
2022/12/21 07:03:32;;;;;;;6.70;6.07;;;17.60;60.20;;;;;;5041570;28;20460;-77
2022/12/21 07:06:10;;;;;;;8.80;6.87;;;17.60;60.20;;;;;;5036495;28;20473;-77
2022/12/21 07:08:38;;;;;;;8.20;6.47;;;17.60;60.10;;;;;;5042519;28;20479;-77
2022/12/21 07:11:07;;;;;;;9.37;6.70;;;17.60;60.10;;;;;;5047997;28;20456;-77
2022/12/21 07:13:35;;;;;;;8.80;6.50;;;17.60;60.20;;;;;;5037011;28;20451;-77
2022/12/21 07:16:03;;;;;;;7.70;6.37;;;17.60;60.20;;;;;;5039730;28;20446;-77
2022/12/21 07:18:31;;;;;;;8.43;6.73;;;17.60;60.10;;;;;;5037755;28;20471;-77
2022/12/21 07:20:59;;;;;;;8.00;6.57;;;17.60;60.10;;;;;;5039059;28;20457;-77
2022/12/21 07:23:28;;;;;;;6.87;6.00;;;17.60;60.10;;;;;;5042991;28;20463;-78
2022/12/21 07:25:56;;;;;;;8.00;7.20;;;17.60;60.10;;;;;;5044283;28;20463;-77
2022/12/21 07:28:33;;;;;;;6.90;6.10;;;17.60;60.00;;;;;;5036986;28;20479;-77
2022/12/21 07:31:03;;;;;;;7.80;6.37;;;17.60;60.10;;;;;;5049721;28;20450;-77
2022/12/21 07:33:31;;;;;;;8.67;6.73;;;17.60;60.10;;;;;;5044915;28;20450;-76
2022/12/21 07:35:59;;;;;;;8.10;6.00;;;17.60;60.10;;;;;;5051766;28;20442;-77
2022/12/21 07:38:33;;;;;;;7.07;6.00;;;17.60;60.30;;;;;;5045060;28;20625;-77
2022/12/21 07:41:01;;;;;;;7.67;6.27;;;17.60;60.20;;;;;;5049528;28;20457;-77
2022/12/21 07:43:30;;;;;;;6.60;5.70;;;17.60;60.20;;;;;;5044454;28;20448;-77
2022/12/21 07:45:57;;;;;;;5.90;5.30;;;17.60;60.10;;;;;;5048272;28;20477;-77
2022/12/21 07:48:26;;;;;;;6.93;6.00;;;17.50;60.00;;;;;;5041378;28;20526;-77
2022/12/21 07:50:58;;;;;;;8.47;6.30;;;17.50;60.00;;;;;;5048284;28;20449;-77
2022/12/21 07:53:26;;;;;;;7.13;5.87;;;17.50;59.90;;;;;;5039159;28;20460;-77
2022/12/21 07:56:00;;;;;;;6.93;6.10;;;17.50;60.00;;;;;;5038904;28;20447;-77
2022/12/21 07:58:29;;;;;;;6.70;5.60;;;17.50;60.00;;;;;;5039323;28;20481;-76
2022/12/21 08:01:04;;;;;;;6.80;5.57;;;17.50;60.10;;;;;;5045111;28;20465;-76
2022/12/21 08:03:33;;;;;;;6.27;5.50;;;17.50;59.90;;;;;;5042843;28;20491;-76
2022/12/21 08:06:01;;;;;;;6.83;5.20;;;17.50;60.10;;;;;;5041791;28;20572;-76
2022/12/21 08:08:29;;;;;;;7.10;5.63;;;17.50;60.10;;;;;;5039570;28;20482;-76
2022/12/21 08:10:57;;;;;;;7.13;5.90;;;17.60;60.00;;;;;;5040258;28;20451;-76
2022/12/21 08:13:27;;;;;;;6.30;5.60;;;17.50;60.00;;;;;;5043575;28;20457;-78
2022/12/21 08:16:00;;;;;;;6.77;5.37;;;17.50;59.90;;;;;;5051893;28;20459;-79
2022/12/21 08:18:28;;;;;;;8.63;6.63;;;17.50;60.00;;;;;;5044504;28;20501;-79
2022/12/21 08:20:57;;;;;;;7.23;6.07;;;17.50;59.90;;;;;;5043188;28;20462;-78
2022/12/21 08:23:25;;;;;;;7.00;5.90;;;17.50;60.00;;;;;;5047847;28;20462;-78
2022/12/21 08:25:52;;;;;;;7.63;6.30;;;17.50;60.10;;;;;;5043102;28;20549;-77
2022/12/21 08:28:20;;;;;;;6.70;5.90;;;17.50;60.00;;;;;;5048610;28;20481;-77
2022/12/21 08:30:50;;;;;;;6.67;5.80;;;17.50;59.90;;;;;;5042022;28;20447;-76
2022/12/21 08:33:18;;;;;;;6.70;5.97;;;17.50;59.80;;;;;;5043219;28;20497;-76
2022/12/21 08:35:46;;;;;;;7.90;6.07;;;17.50;60.00;;;;;;5045395;28;20473;-77
2022/12/21 08:38:14;;;;;;;6.53;5.63;;;17.50;59.90;;;;;;5033667;28;20479;-77
2022/12/21 08:41:02;;;;;;;6.20;5.50;;;17.50;59.90;;;;;;5041675;28;20446;-77
2022/12/21 08:43:30;;;;;;;6.97;5.77;;;17.50;59.90;;;;;;5048246;28;20454;-77
2022/12/21 08:46:02;;;;;;;7.30;5.77;;;17.60;60.00;;;;;;5035712;28;20455;-76
2022/12/21 08:48:30;;;;;;;6.37;5.73;;;17.60;59.90;;;;;;5034311;28;20475;-76
2022/12/21 08:50:58;;;;;;;7.10;6.03;;;17.60;60.00;;;;;;5035770;28;20454;-76
2022/12/21 08:53:26;;;;;;;6.20;5.60;;;17.60;59.80;;;;;;5034199;28;20460;-77
2022/12/21 08:55:54;;;;;;;6.80;5.70;;;17.60;59.80;;;;;;5046465;28;20455;-77
2022/12/21 08:58:23;;;;;;;6.60;5.80;;;17.60;59.90;;;;;;5033491;28;20499;-77
2022/12/21 09:00:52;;;;;;;6.40;5.77;;;17.60;59.80;;;;;;5034051;28;20452;-77
2022/12/21 09:03:22;;;;;;;7.50;5.57;;;17.60;59.80;;;;;;5047463;28;20455;-77
2022/12/21 09:05:53;;;;;;;7.30;6.20;;;17.60;59.80;;;;;;5037749;28;20450;-77
2022/12/21 09:08:22;;;;;;;6.10;5.50;;;17.60;59.80;;;;;;5043887;28;20485;-77
2022/12/21 09:10:49;;;;;;;5.30;4.90;;;17.60;59.80;;;;;;5036461;28;20455;-77
2022/12/21 09:13:18;;;;;;;7.77;5.70;;;17.60;59.80;;;;;;5036912;28;20450;-77
2022/12/21 09:15:45;;;;;;;7.73;5.93;;;17.70;59.80;;;;;;5033781;28;20451;-77
2022/12/21 09:18:14;;;;;;;6.00;5.40;;;17.60;59.80;;;;;;5033189;28;20490;-76
2022/12/21 09:20:43;;;;;;;6.03;5.43;;;17.70;59.80;;;;;;5034802;28;20459;-77
2022/12/21 09:23:13;;;;;;;6.13;5.13;;;17.70;59.80;;;;;;5033215;28;20463;-77
2022/12/21 09:25:41;;;;;;;5.93;5.30;;;17.70;59.80;;;;;;5040115;28;20485;-77
2022/12/21 09:28:09;;;;;;;6.27;5.43;;;17.70;59.70;;;;;;5041469;28;20466;-77
2022/12/21 09:30:37;;;;;;;5.93;5.30;;;17.70;59.60;;;;;;5042072;28;20486;-76
2022/12/21 09:33:05;;;;;;;6.30;5.37;;;17.70;59.70;;;;;;5042907;28;20541;-77
2022/12/21 09:35:36;;;;;;;6.00;4.97;;;17.70;59.80;;;;;;5043843;28;20459;-77
2022/12/21 09:38:06;;;;;;;5.77;5.27;;;17.70;59.80;;;;;;5039910;28;20453;-77
2022/12/21 09:40:34;;;;;;;5.90;4.90;;;17.70;59.70;;;;;;5043037;28;20447;-77
2022/12/21 09:43:06;;;;;;;5.67;5.00;;;17.70;59.80;;;;;;5036529;28;20455;-77
2022/12/21 09:45:42;;;;;;;6.23;5.40;;;17.70;59.70;;;;;;5036593;28;20455;-77
2022/12/21 09:48:11;;;;;;;5.17;4.67;;;17.70;59.70;;;;;;5036374;28;20560;-77
2022/12/21 09:50:43;;;;;;;5.80;5.17;;;17.70;59.70;;;;;;5039477;28;20491;-77
2022/12/21 09:53:18;;;;;;;5.43;4.63;;;17.70;59.70;;;;;;5043393;28;20470;-77
2022/12/21 09:55:47;;;;;;;5.93;5.33;;;17.80;59.70;;;;;;5033574;28;20455;-77
2022/12/21 09:58:18;;;;;;;7.03;5.13;;;17.70;59.70;;;;;;5038371;28;20468;-77
2022/12/21 10:00:47;;;;;;;7.07;5.60;;;17.70;59.80;;;;;;5038271;28;20461;-78
2022/12/21 10:03:33;;;;;;;5.63;5.00;;;17.80;59.90;;;;;;5038058;28;20490;-77
2022/12/21 10:06:08;;;;;;;5.87;5.17;;;17.80;59.80;;;;;;5040470;28;20541;-77
2022/12/21 10:08:52;;;;;;;6.27;5.40;;;17.80;59.80;;;;;;5038246;28;20477;-78
2022/12/21 10:11:29;;;;;;;6.20;5.50;;;17.80;59.80;;;;;;5042949;28;20538;-76
2022/12/21 10:14:03;;;;;;;5.53;4.97;;;17.80;59.70;;;;;;5040205;28;20462;-78
2022/12/21 10:16:36;;;;;;;5.20;4.80;;;17.80;59.60;;;;;;5044817;28;20454;-78
2022/12/21 10:19:19;;;;;;;5.70;5.00;;;17.80;59.60;;;;;;5041187;28;20552;-78
2022/12/21 10:21:53;;;;;;;5.70;5.10;;;17.90;59.80;;;;;;5037134;28;20454;-78
2022/12/21 10:24:26;;;;;;;5.90;4.97;;;17.90;59.80;;;;;;5035556;28;20464;-78
2022/12/21 10:26:58;;;;;;;5.40;4.80;;;18.00;59.70;;;;;;5051261;28;20441;-77
2022/12/21 10:29:32;;;;;;;5.77;5.03;;;18.00;59.60;;;;;;5043058;28;20467;-78
2022/12/21 10:32:03;;;;;;;5.93;5.27;;;17.90;59.60;;;;;;5051600;28;20442;-77
2022/12/21 10:34:34;;;;;;;5.17;4.57;;;18.00;59.70;;;;;;5051700;28;20442;-77
2022/12/21 10:37:11;;;;;;;6.90;5.87;;;18.00;59.70;;;;;;5046300;28;20517;-77
2022/12/21 10:39:43;;;;;;;5.90;5.27;;;18.00;59.80;;;;;;5053471;28;20548;-77
2022/12/21 10:42:18;;;;;;;5.70;4.80;;;18.00;59.70;;;;;;5055258;28;20465;-77
2022/12/21 10:44:48;;;;;;;5.70;5.20;;;18.00;59.60;;;;;;5055387;28;20457;-77
2022/12/21 10:47:19;;;;;;;6.93;5.73;;;18.00;59.60;;;;;;5055013;28;20446;-77
2022/12/21 10:49:53;;;;;;;8.73;5.97;;;18.00;59.60;;;;;;5055138;28;20464;-77
2022/12/21 10:52:38;;;;;;;6.10;5.50;;;18.10;59.70;;;;;;5048967;28;20460;-77
2022/12/21 10:55:25;;;;;;;7.00;5.77;;;18.20;59.80;;;;;;5047564;28;20443;-77
2022/12/21 10:57:57;;;;;;;6.77;5.80;;;18.30;59.50;;;;;;5055939;28;20542;-77
2022/12/21 11:00:27;;;;;;;6.70;5.40;;;18.40;59.50;;;;;;5074981;28;20441;-77
2022/12/21 11:02:56;;;;;;;6.47;5.30;;;18.40;59.40;;;;;;5055498;28;20454;-77
2022/12/21 11:05:32;;;;;;;7.90;5.90;;;18.50;59.40;;;;;;5049604;28;20445;-77
2022/12/21 11:08:20;;;;;;;6.83;5.30;;;18.50;59.10;;;;;;5049893;28;20474;-77
2022/12/21 11:10:52;;;;;;;7.13;5.50;;;18.60;59.20;;;;;;5054279;28;20475;-77
2022/12/21 11:13:23;;;;;;;7.43;5.70;;;18.60;59.00;;;;;;5053532;28;20463;-77
2022/12/21 11:15:53;;;;;;;6.43;5.60;;;18.60;59.00;;;;;;5054470;28;20500;-77
2022/12/21 11:18:36;;;;;;;8.30;6.37;;;18.60;59.00;;;;;;5054094;28;20462;-77
2022/12/21 11:21:05;;;;;;;7.03;5.50;;;18.60;59.00;;;;;;5053849;28;20934;-77
2022/12/21 11:23:35;;;;;;;8.13;5.97;;;18.60;59.10;;;;;;5072675;28;20454;-77
2022/12/21 11:26:35;;;;;;;7.37;5.47;;;18.60;59.00;;;;;;5068231;28;20505;-77
2022/12/21 11:29:06;;;;;;;8.90;6.67;;;18.60;59.10;;;;;;5046038;28;20469;-77
2022/12/21 11:31:35;;;;;;;7.40;5.70;;;18.60;59.00;;;;;;5052927;28;20443;-77
2022/12/21 11:34:26;;;;;;;8.30;6.20;;;18.70;59.10;;;;;;5062134;28;20426;-77
2022/12/21 11:36:56;;;;;;;9.77;6.83;;;18.70;59.20;;;;;;5056469;28;20431;-77
2022/12/21 11:39:27;;;;;;;8.37;6.83;;;18.90;59.20;;;;;;5054344;28;20465;-77
2022/12/21 11:42:01;;;;;;;8.90;6.40;;;19.10;59.10;;;;;;5047351;28;20547;-77
2022/12/21 11:44:31;;;;;;;9.33;6.57;;;19.20;58.80;;;;;;5038741;28;20481;-76
2022/12/21 11:47:08;;;;;;;8.13;6.23;;;19.20;58.70;;;;;;5037964;28;20541;-77
2022/12/21 11:49:59;;;;;;;9.20;6.30;;;19.30;59.00;;;;;;5060803;23;20490;-78
2022/12/21 11:52:38;;;;;;;9.27;6.73;;;19.60;58.80;;;;;;5056691;28;20478;-79
2022/12/21 11:58:26;;;;;;;9.20;6.87;;;19.80;58.20;;;;;;5053031;28;20438;-77
2022/12/21 12:01:08;;;;;;;9.00;6.30;;;19.80;57.80;;;;;;5018106;28;20436;-79
2022/12/21 12:03:48;;;;;;;9.70;6.10;;;19.60;57.90;;;;;;5036761;28;20529;-79
2022/12/21 12:06:34;;;;;;;7.70;6.40;;;19.50;58.00;;;;;;5032122;28;20455;-79
2022/12/21 12:09:10;;;;;;;8.60;6.40;;;19.30;58.30;;;;;;5027531;28;20486;-78
2022/12/21 12:11:46;;;;;;;7.40;5.57;;;19.30;58.60;;;;;;5031146;28;20459;-79
2022/12/21 12:14:26;;;;;;;8.97;6.53;;;19.10;58.50;;;;;;5032849;28;20447;-79
2022/12/21 12:17:01;;;;;;;8.30;6.20;;;19.10;59.00;;;;;;5030955;28;20465;-79
2022/12/21 12:19:33;;;;;;;8.00;5.80;;;19.20;59.20;;;;;;5027685;28;20479;-79
2022/12/21 12:25:15;;;;;;;8.07;6.43;;;19.60;59.60;;;;;;5032555;28;20447;-80
2022/12/21 12:28:25;;;;;;;9.10;6.60;;;19.90;59.30;;;;;;5032814;28;20475;-79
2022/12/21 12:31:02;;;;;;;6.73;5.60;;;20.40;59.10;;;;;;5018451;28;20482;-79
2022/12/21 12:33:55;;;;;;;11.53;6.63;;;20.70;58.60;;;;;;5033225;28;20459;-79
2022/12/21 12:36:35;;;;;;;8.90;6.33;;;20.80;57.80;;;;;;5031040;28;20459;-79
2022/12/21 12:39:09;;;;;;;9.07;6.30;;;20.80;57.80;;;;;;5033697;28;20544;-79
2022/12/21 12:41:45;;;;;;;14.30;6.40;;;20.70;57.50;;;;;;5031593;28;20461;-78
2022/12/21 12:44:24;;;;;;;10.00;5.83;;;20.70;57.60;;;;;;5039083;28;20472;-77
2022/12/21 12:47:09;;;;;;;7.03;5.43;;;20.50;57.40;;;;;;5034674;28;20539;-79
2022/12/21 12:50:11;;;;;;;11.57;6.87;;;20.50;57.80;;;;;;5040988;28;20475;-78
2022/12/21 12:53:26;;;;;;;9.10;5.87;;;20.60;57.80;;;;;;5037723;28;20535;-79
2022/12/21 12:56:25;;;;;;;9.03;5.93;;;20.40;57.60;;;;;;5035901;28;20457;-78
2022/12/21 12:59:15;;;;;;;7.63;5.77;;;20.20;57.80;;;;;;5036459;28;20540;-78
2022/12/21 13:02:02;;;;;;;9.27;6.13;;;20.10;58.10;;;;;;5035273;28;20448;-78
2022/12/21 13:05:17;;;;;;;7.37;5.77;;;20.00;58.30;;;;;;5033106;28;20465;-78
2022/12/21 13:08:06;;;;;;;8.37;5.77;;;19.90;58.40;;;;;;5035112;28;20519;-78
2022/12/21 13:10:49;;;;;;;8.37;6.47;;;19.80;58.70;;;;;;5036234;28;20486;-78
2022/12/21 13:13:28;;;;;;;9.57;6.20;;;19.90;59.30;;;;;;5036579;28;20455;-78
2022/12/21 13:16:14;;;;;;;6.77;6.07;;;20.30;59.60;;;;;;5038077;28;20458;-78
2022/12/21 13:18:58;;;;;;;6.93;6.03;;;20.60;58.80;;;;;;5035369;28;20463;-78
2022/12/21 13:21:58;;;;;;;7.97;5.73;;;20.70;58.60;;;;;;5034516;28;20458;-78
2022/12/21 13:24:36;;;;;;;6.30;5.47;;;20.90;58.20;;;;;;5031081;28;20451;-78
2022/12/21 13:27:19;;;;;;;9.53;5.90;;;21.00;57.90;;;;;;5028765;28;20455;-78
2022/12/21 13:33:15;;;;;;;10.43;6.23;;;21.20;57.40;;;;;;5031315;28;20460;-78
2022/12/21 13:36:20;;;;;;;10.40;6.13;;;21.10;57.40;;;;;;5033222;28;20521;-79
2022/12/21 13:39:03;;;;;;;9.70;6.70;;;21.10;57.30;;;;;;5033136;28;20543;-79